createdAt,value
2023-07-20T00:03:18.354Z,101636.72
2023-07-20T00:05:26.314Z,101633.38
2023-07-20T00:07:33.935Z,101626.44
2023-07-20T00:09:39.248Z,101625.97
2023-07-20T00:11:44.563Z,101622.78
2023-07-20T00:13:49.491Z,101626.84
2023-07-20T00:15:55.205Z,101633.06
2023-07-20T00:18:00.073Z,101630.41
2023-07-20T00:20:06.553Z,101629.94
2023-07-20T00:22:12.627Z,101632.97
2023-07-20T00:24:20.369Z,101627.75
2023-07-20T00:26:25.879Z,101637.19
2023-07-20T00:28:28.625Z,101644.69
2023-07-20T00:30:33.884Z,101640.06
2023-07-20T00:32:39.087Z,101641.94
2023-07-20T00:34:42.300Z,101645.06
2023-07-20T00:36:47.579Z,101639.13
2023-07-20T00:38:52.464Z,101628.00
2023-07-20T00:41:00.129Z,101638.66
2023-07-20T00:43:05.103Z,101631.19
2023-07-20T00:45:11.649Z,101630.19
2023-07-20T00:47:17.085Z,101630.41
2023-07-20T00:49:23.165Z,101635.00
2023-07-20T00:51:29.519Z,101629.63
2023-07-20T00:53:34.878Z,101622.34
2023-07-20T00:55:44.587Z,101631.34
2023-07-20T00:57:52.285Z,101630.34
2023-07-20T01:00:00.143Z,101633.59
2023-07-20T01:02:05.300Z,101628.59
2023-07-20T01:04:10.765Z,101627.88
2023-07-20T01:06:31.935Z,101629.69
2023-07-20T01:08:43.255Z,101639.63
2023-07-20T01:10:55.072Z,101635.63
2023-07-20T01:13:06.412Z,101635.69
2023-07-20T01:15:13.338Z,101642.97
2023-07-20T01:17:18.257Z,101631.47
2023-07-20T01:19:23.395Z,101632.34
2023-07-20T01:21:34.824Z,101637.78
2023-07-20T01:24:09.096Z,101630.59
2023-07-20T01:26:40.999Z,101635.75
2023-07-20T01:29:18.824Z,101642.53
2023-07-20T01:31:30.150Z,101643.75
2023-07-20T01:33:34.803Z,101646.59
2023-07-20T01:35:42.541Z,101645.91
2023-07-20T01:37:50.875Z,101649.03
2023-07-20T01:40:01.426Z,101647.44
2023-07-20T01:42:07.391Z,101647.56
2023-07-20T01:44:13.672Z,101649.44
2023-07-20T01:46:19.037Z,101655.59
2023-07-20T01:48:26.728Z,101654.94
2023-07-20T01:50:35.317Z,101654.28
2023-07-20T01:52:44.388Z,101657.66
2023-07-20T01:54:49.541Z,101657.13
2023-07-20T01:56:54.515Z,101655.41
2023-07-20T01:58:56.960Z,101654.34
2023-07-20T02:01:05.362Z,101649.81
2023-07-20T02:03:13.668Z,101656.78
2023-07-20T02:05:21.443Z,101651.66
2023-07-20T02:07:26.610Z,101657.94
2023-07-20T02:09:34.989Z,101657.13
2023-07-20T02:11:42.070Z,101657.00
2023-07-20T02:13:47.399Z,101650.00
2023-07-20T02:15:52.977Z,101645.69
2023-07-20T02:17:58.249Z,101649.91
2023-07-20T02:20:03.419Z,101652.44
2023-07-20T02:22:12.039Z,101657.94
2023-07-20T02:24:17.577Z,101660.38
2023-07-20T02:26:22.855Z,101654.16
2023-07-20T02:28:28.076Z,101649.66
2023-07-20T02:30:33.124Z,101653.31
2023-07-20T02:32:39.869Z,101650.00
2023-07-20T02:34:45.125Z,101650.91
2023-07-20T02:36:50.389Z,101651.84
2023-07-20T02:38:58.205Z,101651.97
2023-07-20T02:41:04.096Z,101652.88
2023-07-20T02:43:09.188Z,101654.75
2023-07-20T02:45:13.624Z,101660.91
2023-07-20T02:47:18.575Z,101656.66
2023-07-20T02:49:23.446Z,101663.72
2023-07-20T02:51:28.949Z,101661.88
2023-07-20T02:53:33.866Z,101663.00
2023-07-20T02:55:42.552Z,101668.34
2023-07-20T02:57:47.673Z,101668.50
2023-07-20T02:59:52.586Z,101676.41
2023-07-20T03:02:01.676Z,101682.50
2023-07-20T03:04:11.799Z,101675.44
2023-07-20T03:06:17.251Z,101678.03
2023-07-20T03:08:22.385Z,101677.34
2023-07-20T03:10:28.380Z,101678.13
2023-07-20T03:12:36.022Z,101680.66
2023-07-20T03:14:41.838Z,101683.53
2023-07-20T03:16:47.829Z,101684.41
2023-07-20T03:18:53.013Z,101684.63
2023-07-20T03:20:55.377Z,101693.41
2023-07-20T03:23:00.573Z,101685.53
2023-07-20T03:25:05.860Z,101686.50
2023-07-20T03:27:12.080Z,101687.56
2023-07-20T03:29:20.031Z,101686.06
2023-07-20T03:31:25.173Z,101689.59
2023-07-20T03:33:32.744Z,101694.34
2023-07-20T03:35:37.710Z,101691.28
2023-07-20T03:37:43.869Z,101693.16
2023-07-20T03:39:48.909Z,101686.25
2023-07-20T03:41:53.847Z,101692.44
2023-07-20T03:43:59.433Z,101688.22
2023-07-20T03:46:08.457Z,101686.56
2023-07-20T03:48:13.588Z,101692.69
2023-07-20T03:50:19.139Z,101690.94
2023-07-20T03:52:24.679Z,101693.50
2023-07-20T03:54:29.519Z,101687.16
2023-07-20T03:56:37.215Z,101689.75
2023-07-20T03:58:42.490Z,101683.63
2023-07-20T04:00:51.634Z,101687.03
2023-07-20T04:03:01.627Z,101698.44
2023-07-20T04:05:10.054Z,101694.94
2023-07-20T04:07:16.462Z,101701.00
2023-07-20T04:09:21.578Z,101699.22
2023-07-20T04:11:26.506Z,101698.28
2023-07-20T04:13:34.766Z,101697.38
2023-07-20T04:15:40.113Z,101698.16
2023-07-20T04:17:46.148Z,101693.78
2023-07-20T04:19:54.182Z,101691.88
2023-07-20T04:21:59.910Z,101695.41
2023-07-20T04:24:06.380Z,101698.16
2023-07-20T04:26:13.910Z,101693.63
2023-07-20T04:28:18.866Z,101696.06
2023-07-20T04:30:24.671Z,101700.31
2023-07-20T04:32:27.149Z,101688.78
2023-07-20T04:34:33.087Z,101700.31
2023-07-20T04:36:40.780Z,101697.59
2023-07-20T04:38:46.959Z,101699.19
2023-07-20T04:40:53.305Z,101698.06
2023-07-20T04:42:58.202Z,101702.06
2023-07-20T04:45:03.153Z,101698.19
2023-07-20T04:47:09.925Z,101700.47
2023-07-20T04:49:16.527Z,101707.22
2023-07-20T04:51:22.287Z,101705.38
2023-07-20T04:53:29.987Z,101706.72
2023-07-20T04:55:35.121Z,101698.78
2023-07-20T04:57:40.453Z,101704.69
2023-07-20T04:59:49.163Z,101701.19
2023-07-20T05:01:54.214Z,101711.03
2023-07-20T05:03:59.592Z,101711.94
2023-07-20T05:06:04.808Z,101711.09
2023-07-20T05:08:10.528Z,101706.34
2023-07-20T05:10:18.198Z,101710.31
2023-07-20T05:12:23.133Z,101705.75
2023-07-20T05:14:27.963Z,101708.84
2023-07-20T05:16:32.986Z,101708.69
2023-07-20T05:18:35.999Z,101704.94
2023-07-20T05:20:41.538Z,101719.81
2023-07-20T05:22:46.204Z,101712.38
2023-07-20T05:24:51.338Z,101717.53
2023-07-20T05:27:01.450Z,101716.44
2023-07-20T05:29:06.548Z,101717.41
2023-07-20T05:31:11.884Z,101716.34
2023-07-20T05:33:17.262Z,101715.59
2023-07-20T05:35:22.428Z,101719.69
2023-07-20T05:37:29.168Z,101715.69
2023-07-20T05:39:38.477Z,101713.69
2023-07-20T05:41:45.637Z,101709.69
2023-07-20T05:43:50.785Z,101711.34
2023-07-20T05:45:55.838Z,101705.28
2023-07-20T05:48:00.829Z,101700.44
2023-07-20T05:50:07.766Z,101695.91
2023-07-20T05:52:10.320Z,101695.81
2023-07-20T05:54:16.092Z,101696.53
2023-07-20T05:56:21.355Z,101695.59
2023-07-20T05:58:27.088Z,101706.13
2023-07-20T06:00:34.803Z,101705.03
2023-07-20T06:02:40.396Z,101705.72
2023-07-20T06:04:47.083Z,101699.13
2023-07-20T06:06:52.155Z,101705.25
2023-07-20T06:08:57.362Z,101708.06
2023-07-20T06:11:02.824Z,101713.53
2023-07-20T06:13:07.662Z,101710.25
2023-07-20T06:15:29.928Z,101715.41
2023-07-20T06:17:40.504Z,101718.81
2023-07-20T06:19:49.574Z,101709.66
2023-07-20T06:21:54.743Z,101708.03
2023-07-20T06:24:00.182Z,101715.00
2023-07-20T06:26:05.682Z,101719.03
2023-07-20T06:28:10.592Z,101714.91
2023-07-20T06:30:17.760Z,101721.59
2023-07-20T06:32:22.734Z,101721.25
2023-07-20T06:34:30.776Z,101719.19
2023-07-20T06:36:36.545Z,101718.00
2023-07-20T06:38:41.711Z,101719.13
2023-07-20T06:40:48.085Z,101727.09
2023-07-20T06:45:04.660Z,101720.69
2023-07-20T06:47:12.801Z,101718.91
2023-07-20T06:49:31.662Z,101720.97
2023-07-20T06:51:36.563Z,101717.13
2023-07-20T06:53:41.629Z,101714.94
2023-07-20T06:55:49.687Z,101723.63
2023-07-20T06:57:59.379Z,101730.13
2023-07-20T07:00:05.556Z,101720.09
2023-07-20T07:04:18.909Z,101728.69
2023-07-20T07:06:26.960Z,101719.72
2023-07-20T07:08:35.054Z,101724.56
2023-07-20T07:10:40.506Z,101722.91
2023-07-20T07:12:45.567Z,101726.13
2023-07-20T07:14:52.086Z,101723.28
2023-07-20T07:17:04.378Z,101723.16
2023-07-20T07:19:13.111Z,101727.88
2023-07-20T07:21:18.448Z,101720.19
2023-07-20T07:23:26.430Z,101718.34
2023-07-20T07:25:32.631Z,101727.44
2023-07-20T07:27:37.653Z,101719.34
2023-07-20T07:29:45.486Z,101724.34
2023-07-20T07:31:50.516Z,101727.75
2023-07-20T07:34:02.380Z,101725.53
2023-07-20T07:36:07.928Z,101722.44
2023-07-20T07:38:26.781Z,101723.94
2023-07-20T07:40:40.934Z,101724.06
2023-07-20T07:42:46.094Z,101728.03
2023-07-20T07:44:51.419Z,101729.81
2023-07-20T07:46:56.466Z,101732.28
2023-07-20T07:49:05.216Z,101734.09
2023-07-20T07:51:13.262Z,101736.97
2023-07-20T07:53:18.266Z,101733.47
2023-07-20T07:55:23.223Z,101733.88
2023-07-20T07:57:30.784Z,101729.16
2023-07-20T07:59:38.188Z,101730.91
2023-07-20T08:01:44.916Z,101732.13
2023-07-20T08:03:50.711Z,101729.38
2023-07-20T08:06:00.339Z,101725.25
2023-07-20T08:08:05.442Z,101729.56
2023-07-20T08:10:13.031Z,101733.69
2023-07-20T08:12:19.954Z,101732.41
2023-07-20T08:14:28.866Z,101732.19
2023-07-20T08:16:34.017Z,101739.91
2023-07-20T08:18:39.597Z,101737.66
2023-07-20T08:20:48.170Z,101744.19
2023-07-20T08:22:53.399Z,101741.91
2023-07-20T08:24:59.722Z,101744.50
2023-07-20T08:27:04.762Z,101745.81
2023-07-20T08:29:13.074Z,101738.69
2023-07-20T08:31:21.980Z,101734.94
2023-07-20T08:33:30.791Z,101744.63
2023-07-20T08:35:36.152Z,101740.88
2023-07-20T08:37:38.725Z,101749.19
2023-07-20T08:39:46.143Z,101749.22
2023-07-20T08:41:51.697Z,101739.34
2023-07-20T08:44:01.178Z,101742.22
2023-07-20T08:46:07.649Z,101745.22
2023-07-20T08:48:17.034Z,101740.06
2023-07-20T08:50:24.008Z,101737.94
2023-07-20T08:52:36.137Z,101737.28
2023-07-20T08:54:43.412Z,101736.25
2023-07-20T08:56:50.878Z,101739.47
2023-07-20T08:58:58.795Z,101727.53
2023-07-20T09:01:04.385Z,101735.41
2023-07-20T09:03:11.293Z,101731.44
2023-07-20T09:05:19.583Z,101729.25
2023-07-20T09:07:26.737Z,101726.59
2023-07-20T09:09:34.648Z,101726.69
2023-07-20T09:11:39.460Z,101729.75
2023-07-20T09:13:44.467Z,101728.25
2023-07-20T09:15:57.650Z,101728.50
2023-07-20T09:18:06.684Z,101726.66
2023-07-20T09:20:13.161Z,101719.56
2023-07-20T09:22:21.396Z,101717.66
2023-07-20T09:24:26.738Z,101723.69
2023-07-20T09:26:32.670Z,101722.06
2023-07-20T09:28:48.048Z,101717.66
2023-07-20T09:30:54.555Z,101725.25
2023-07-20T09:33:00.250Z,101732.94
2023-07-20T09:37:14.240Z,101715.16
2023-07-20T09:43:38.714Z,101719.69
2023-07-20T09:48:35.173Z,101718.25
2023-07-20T09:54:33.724Z,101727.28
2023-07-20T09:56:43.395Z,101720.63
2023-07-20T09:58:50.028Z,101726.28
2023-07-20T10:01:01.767Z,101721.72
2023-07-20T10:03:08.120Z,101719.94
2023-07-20T10:05:17.382Z,101720.97
2023-07-20T10:07:25.005Z,101721.75
2023-07-20T10:09:37.840Z,101729.72
2023-07-20T10:11:44.438Z,101715.28
2023-07-20T10:13:56.709Z,101729.63
2023-07-20T10:16:09.584Z,101721.03
2023-07-20T10:18:14.666Z,101709.88
2023-07-20T10:20:23.776Z,101718.31
2023-07-20T10:22:29.023Z,101710.03
2023-07-20T10:24:38.678Z,101717.41
2023-07-20T10:26:42.473Z,101714.38
2023-07-20T10:28:48.824Z,101710.25
2023-07-20T10:30:54.621Z,101717.59
2023-07-20T10:32:59.782Z,101713.47
2023-07-20T10:35:04.721Z,101712.50
2023-07-20T10:37:10.497Z,101724.88
2023-07-20T10:39:29.243Z,101713.56
2023-07-20T10:41:46.501Z,101711.22
2023-07-20T10:43:49.636Z,101714.06
2023-07-20T10:45:56.130Z,101703.88
2023-07-20T10:47:58.741Z,101704.63
2023-07-20T10:50:06.462Z,101706.84
2023-07-20T10:52:17.779Z,101703.31
2023-07-20T10:54:39.505Z,101690.72
2023-07-20T10:56:48.690Z,101701.22
2023-07-20T10:58:51.047Z,101693.78
2023-07-20T11:01:04.668Z,101696.91
2023-07-20T11:03:10.475Z,101693.34
2023-07-20T11:05:36.872Z,101699.53
2023-07-20T11:07:43.109Z,101692.31
2023-07-20T11:09:49.823Z,101690.06
2023-07-20T11:12:15.423Z,101689.91
2023-07-20T11:14:27.969Z,101694.91
2023-07-20T11:16:44.809Z,101686.78
2023-07-20T11:18:48.064Z,101690.19
2023-07-20T11:20:55.018Z,101689.16
2023-07-20T11:23:01.184Z,101690.97
2023-07-20T11:25:06.722Z,101686.84
2023-07-20T11:27:14.342Z,101688.09
2023-07-20T11:29:29.818Z,101686.97
2023-07-20T11:31:40.143Z,101675.69
2023-07-20T11:33:45.078Z,101685.38
2023-07-20T11:35:52.337Z,101673.13
2023-07-20T11:37:57.604Z,101676.19
2023-07-20T11:40:05.444Z,101672.00
2023-07-20T11:42:14.101Z,101667.19
2023-07-20T11:44:45.617Z,101659.97
2023-07-20T11:46:50.836Z,101669.81
2023-07-20T11:49:00.849Z,101663.59
2023-07-20T11:51:06.792Z,101670.22
2023-07-20T11:53:12.724Z,101661.22
2023-07-20T11:55:19.053Z,101665.47
2023-07-20T11:57:28.260Z,101654.13
2023-07-20T11:59:33.543Z,101658.53
2023-07-20T12:01:39.169Z,101663.56
2023-07-20T12:03:44.310Z,101661.53
2023-07-20T12:06:01.200Z,101654.56
2023-07-20T12:08:07.858Z,101661.63
2023-07-20T12:10:17.064Z,101650.22
2023-07-20T12:12:23.358Z,101653.09
2023-07-20T12:14:31.136Z,101653.78
2023-07-20T12:16:36.235Z,101649.03
2023-07-20T12:18:38.678Z,101654.69
2023-07-20T12:20:44.621Z,101660.72
2023-07-20T12:22:47.479Z,101646.38
2023-07-20T12:24:56.697Z,101648.69
2023-07-20T12:27:02.665Z,101643.75
2023-07-20T12:29:08.027Z,101660.22
2023-07-20T12:31:15.734Z,101653.78
2023-07-20T12:33:20.774Z,101649.22
2023-07-20T12:35:25.978Z,101648.56
2023-07-20T12:37:31.010Z,101651.63
2023-07-20T12:39:36.406Z,101647.31
2023-07-20T12:41:41.282Z,101639.81
2023-07-20T12:43:48.727Z,101643.47
2023-07-20T12:45:51.293Z,101637.72
2023-07-20T12:47:59.656Z,101634.34
2023-07-20T12:50:05.459Z,101638.41
2023-07-20T12:52:12.840Z,101639.69
2023-07-20T12:54:17.963Z,101641.22
2023-07-20T12:58:31.266Z,101630.22
2023-07-20T13:00:36.230Z,101631.25
2023-07-20T13:05:05.022Z,101630.16
2023-07-20T13:09:22.627Z,101633.84
2023-07-20T13:11:28.275Z,101628.41
2023-07-20T13:13:35.641Z,101634.19
2023-07-20T13:15:50.711Z,101630.28
2023-07-20T13:17:55.885Z,101624.25
2023-07-20T13:20:06.290Z,101622.63
2023-07-20T13:22:11.172Z,101621.03
2023-07-20T13:24:16.900Z,101618.09
2023-07-20T13:26:22.285Z,101607.28
2023-07-20T13:28:27.274Z,101604.88
2023-07-20T13:30:34.276Z,101611.81
2023-07-20T13:32:41.516Z,101614.06
2023-07-20T13:34:50.001Z,101617.59
2023-07-20T13:36:57.671Z,101614.44
2023-07-20T13:39:03.329Z,101611.22
2023-07-20T13:41:08.247Z,101613.91
2023-07-20T13:43:13.518Z,101608.50
2023-07-20T13:45:18.937Z,101606.47
2023-07-20T13:47:24.527Z,101613.56
2023-07-20T13:49:26.953Z,101609.41
2023-07-20T13:51:31.840Z,101610.31
2023-07-20T13:57:56.521Z,101596.94
2023-07-20T14:00:02.331Z,101600.34
2023-07-20T14:04:16.076Z,101598.78
2023-07-20T14:06:24.126Z,101596.03
2023-07-20T14:08:31.506Z,101594.06
2023-07-20T14:12:49.770Z,101597.38
2023-07-20T14:14:54.760Z,101599.97
2023-07-20T14:17:00.230Z,101597.00
2023-07-20T14:19:06.479Z,101589.88
2023-07-20T14:21:09.867Z,101586.63
2023-07-20T14:23:14.840Z,101591.47
2023-07-20T14:25:22.719Z,101593.47
2023-07-20T14:27:30.598Z,101588.47
2023-07-20T14:29:37.801Z,101595.09
2023-07-20T14:31:42.785Z,101588.66
2023-07-20T14:33:47.882Z,101585.00
2023-07-20T14:35:52.919Z,101582.94
2023-07-20T14:37:58.205Z,101577.97
2023-07-20T14:40:03.857Z,101581.88
2023-07-20T14:42:06.876Z,101582.09
2023-07-20T14:44:14.453Z,101581.06
2023-07-20T14:46:21.513Z,101579.41
2023-07-20T14:48:27.112Z,101586.72
2023-07-20T14:50:32.401Z,101582.94
2023-07-20T14:52:48.580Z,101582.25
2023-07-20T14:54:54.200Z,101583.63
2023-07-20T14:56:59.322Z,101580.97
2023-07-20T14:59:01.930Z,101587.53
2023-07-20T15:01:09.833Z,101577.50
2023-07-20T15:03:14.893Z,101578.34
2023-07-20T15:05:28.224Z,101576.16
2023-07-20T15:07:33.444Z,101574.34
2023-07-20T15:09:38.865Z,101580.66
2023-07-20T15:11:44.892Z,101575.28
2023-07-20T15:13:49.764Z,101576.88
2023-07-20T15:15:51.997Z,101576.88
2023-07-20T15:17:59.813Z,101572.09
2023-07-20T15:20:06.077Z,101569.09
2023-07-20T15:22:11.737Z,101571.78
2023-07-20T15:24:17.681Z,101572.63
2023-07-20T15:26:23.031Z,101575.34
2023-07-20T15:28:29.376Z,101572.56
2023-07-20T15:34:51.969Z,101560.06
2023-07-20T15:36:56.948Z,101553.03
2023-07-20T15:39:04.472Z,101557.53
2023-07-20T15:41:09.560Z,101558.25
2023-07-20T15:45:22.558Z,101560.16
2023-07-20T15:47:27.603Z,101553.53
2023-07-20T15:49:34.812Z,101558.22
2023-07-20T15:51:43.192Z,101550.69
2023-07-20T15:53:48.996Z,101549.44
2023-07-20T15:55:58.963Z,101557.50
2023-07-20T15:58:04.090Z,101556.13
2023-07-20T16:00:11.467Z,101550.78
2023-07-20T16:02:17.061Z,101553.88
2023-07-20T16:04:19.388Z,101549.81
2023-07-20T16:06:24.615Z,101544.41
2023-07-20T16:08:33.140Z,101546.22
2023-07-20T16:10:38.023Z,101555.31
2023-07-20T16:12:43.414Z,101545.38
2023-07-20T16:16:56.358Z,101547.84
2023-07-20T16:19:01.580Z,101545.84
2023-07-20T16:21:06.694Z,101541.03
2023-07-20T16:23:11.545Z,101540.66
2023-07-20T16:25:20.737Z,101537.97
2023-07-20T16:27:25.922Z,101538.47
2023-07-20T16:29:30.713Z,101539.97
2023-07-20T16:31:36.005Z,101531.69
2023-07-20T16:33:46.155Z,101530.56
2023-07-20T16:35:51.662Z,101534.25
2023-07-20T16:40:31.848Z,101542.78
2023-07-20T16:44:45.857Z,101530.56
2023-07-20T16:49:00.483Z,101528.31
2023-07-20T16:51:06.407Z,101531.94
2023-07-20T16:53:11.386Z,101530.38
2023-07-20T16:55:18.334Z,101530.22
2023-07-20T16:57:24.737Z,101522.63
2023-07-20T16:59:37.987Z,101523.53
2023-07-20T17:01:43.032Z,101526.47
2023-07-20T17:03:48.142Z,101522.63
2023-07-20T17:05:50.810Z,101521.91
2023-07-20T17:07:56.780Z,101521.22
2023-07-20T17:10:02.163Z,101520.50
2023-07-20T17:12:07.765Z,101521.13
2023-07-20T17:14:14.233Z,101524.84
2023-07-20T17:16:22.221Z,101512.66
2023-07-20T17:18:27.154Z,101509.97
2023-07-20T17:22:40.900Z,101503.69
2023-07-20T17:27:18.368Z,101511.81
2023-07-20T17:29:19.003Z,101515.56
2023-07-20T17:31:30.039Z,101511.22
2023-07-20T17:33:35.097Z,101517.34
2023-07-20T17:35:40.600Z,101506.38
2023-07-20T17:43:06.647Z,101511.31
2023-07-20T17:44:29.734Z,101511.03
2023-07-20T17:48:48.417Z,101506.97
2023-07-20T17:50:53.690Z,101507.88
2023-07-20T17:52:58.878Z,101505.38
2023-07-20T17:55:01.131Z,101502.16
2023-07-20T17:57:06.471Z,101499.44
2023-07-20T17:59:11.300Z,101500.50
2023-07-20T18:01:17.132Z,101503.09
2023-07-20T18:03:22.208Z,101500.81
2023-07-20T18:05:27.707Z,101500.78
2023-07-20T18:07:32.887Z,101491.84
2023-07-20T18:09:37.876Z,101489.34
2023-07-20T18:11:43.104Z,101490.56
2023-07-20T18:13:48.764Z,101492.06
2023-07-20T18:16:01.901Z,101497.31
2023-07-20T18:18:09.341Z,101495.47
2023-07-20T18:20:17.397Z,101492.41
2023-07-20T18:22:19.981Z,101491.97
2023-07-20T18:24:24.695Z,101502.66
2023-07-20T18:26:29.699Z,101505.31
2023-07-20T18:28:34.881Z,101498.81
2023-07-20T18:30:40.479Z,101499.47
2023-07-20T18:32:46.399Z,101497.66
2023-07-20T18:34:51.606Z,101499.44
2023-07-20T18:37:02.224Z,101498.28
2023-07-20T18:39:07.493Z,101496.16
2023-07-20T18:41:13.931Z,101504.03
2023-07-20T18:43:21.737Z,101508.22
2023-07-20T18:45:27.941Z,101503.84
2023-07-20T18:47:34.312Z,101494.72
2023-07-20T18:49:39.428Z,101504.22
2023-07-20T18:51:44.512Z,101497.00
2023-07-20T18:53:54.464Z,101495.91
2023-07-20T18:55:59.693Z,101497.47
2023-07-20T18:58:04.916Z,101491.81
2023-07-20T19:00:11.336Z,101491.72
2023-07-20T19:02:16.940Z,101489.59
2023-07-20T19:04:23.438Z,101490.06
2023-07-20T19:06:28.826Z,101490.41
2023-07-20T19:08:36.149Z,101490.66
2023-07-20T19:12:53.513Z,101488.66
2023-07-20T19:14:58.790Z,101488.69
2023-07-20T19:17:03.678Z,101486.81
2023-07-20T19:19:09.440Z,101489.44
2023-07-20T19:21:15.618Z,101484.22
2023-07-20T19:23:20.535Z,101485.44
2023-07-20T19:25:26.250Z,101488.09
2023-07-20T19:27:33.830Z,101491.91
2023-07-20T19:29:39.426Z,101485.81
2023-07-20T19:31:49.887Z,101491.25
2023-07-20T19:33:54.994Z,101500.69
2023-07-20T19:35:58.150Z,101503.47
2023-07-20T19:38:05.202Z,101511.53
2023-07-20T19:40:13.030Z,101506.28
2023-07-20T19:42:18.241Z,101514.31
2023-07-20T19:44:26.072Z,101510.44
2023-07-20T19:46:31.196Z,101503.72
2023-07-20T19:48:38.074Z,101508.88
2023-07-20T19:50:44.133Z,101509.06
2023-07-20T19:54:56.928Z,101517.69
2023-07-20T19:57:39.781Z,101518.34
2023-07-20T19:59:32.707Z,101528.84
2023-07-20T20:03:48.770Z,101517.50
2023-07-20T20:05:53.789Z,101512.16
2023-07-20T20:08:00.655Z,101516.81
2023-07-20T20:10:06.197Z,101516.66
2023-07-20T20:12:14.085Z,101516.59
2023-07-20T20:14:19.178Z,101514.53
2023-07-20T20:16:27.101Z,101514.75
2023-07-20T20:18:34.092Z,101516.41
2023-07-20T20:20:43.056Z,101512.03
2023-07-20T20:22:47.881Z,101523.09
2023-07-20T20:24:53.191Z,101516.81
2023-07-20T20:26:58.179Z,101520.25
2023-07-20T20:29:03.265Z,101518.63
2023-07-20T20:31:08.259Z,101519.91
2023-07-20T20:33:16.025Z,101523.78
2023-07-20T20:35:21.164Z,101519.69
2023-07-20T20:37:26.989Z,101521.75
2023-07-20T20:39:32.518Z,101522.78
2023-07-20T20:41:45.513Z,101520.28
2023-07-20T20:43:50.792Z,101516.13
2023-07-20T20:45:55.929Z,101518.16
2023-07-20T20:48:00.505Z,101516.97
2023-07-20T20:50:10.283Z,101510.81
2023-07-20T20:52:12.966Z,101510.63
2023-07-20T20:54:17.905Z,101511.97
2023-07-20T20:56:23.256Z,101511.81
2023-07-20T20:58:29.132Z,101508.13
2023-07-20T21:00:35.114Z,101508.69
2023-07-20T21:02:41.824Z,101504.25
2023-07-20T21:04:51.038Z,101507.41
2023-07-20T21:06:59.492Z,101503.53
2023-07-20T21:09:04.478Z,101505.66
2023-07-20T21:11:09.763Z,101508.50
2023-07-20T21:13:17.630Z,101504.81
2023-07-20T21:15:22.922Z,101507.06
2023-07-20T21:17:29.241Z,101506.13
2023-07-20T21:19:34.448Z,101501.50
2023-07-20T21:21:39.601Z,101501.00
2023-07-20T21:23:48.525Z,101509.56
2023-07-20T21:25:53.596Z,101500.06
2023-07-20T21:27:59.161Z,101502.31
2023-07-20T21:30:04.428Z,101496.03
2023-07-20T21:32:11.413Z,101497.59
2023-07-20T21:34:14.524Z,101489.97
2023-07-20T21:36:23.077Z,101485.19
2023-07-20T21:38:31.996Z,101491.16
2023-07-20T21:40:39.878Z,101491.63
2023-07-20T21:42:44.777Z,101493.81
2023-07-20T21:44:49.804Z,101501.09
2023-07-20T21:46:55.314Z,101500.94
2023-07-20T21:49:01.426Z,101495.19
2023-07-20T21:51:06.997Z,101491.69
2023-07-20T21:53:12.060Z,101492.13
2023-07-20T21:55:18.617Z,101497.06
2023-07-20T21:57:26.251Z,101490.72
2023-07-20T21:59:31.257Z,101496.59
2023-07-20T22:03:44.932Z,101497.84
2023-07-20T22:05:53.424Z,101495.31
2023-07-20T22:08:03.052Z,101494.59
2023-07-20T22:10:09.382Z,101495.56
2023-07-20T22:12:15.798Z,101495.56
2023-07-20T22:14:23.505Z,101494.41
2023-07-20T22:16:32.760Z,101501.22
2023-07-20T22:18:38.203Z,101496.38
2023-07-20T22:20:43.294Z,101498.19
2023-07-20T22:22:48.546Z,101496.63
2023-07-20T22:24:53.999Z,101491.66
2023-07-20T22:27:01.263Z,101495.00
2023-07-20T22:29:06.411Z,101491.16
2023-07-20T22:31:14.530Z,101490.41
2023-07-20T22:33:19.819Z,101484.22
2023-07-20T22:35:25.041Z,101482.50
2023-07-20T22:37:29.978Z,101488.34
2023-07-20T22:39:37.860Z,101479.34
2023-07-20T22:41:43.035Z,101482.00
2023-07-20T22:43:47.807Z,101479.22
2023-07-20T22:45:53.106Z,101485.50
2023-07-20T22:48:00.636Z,101475.06
2023-07-20T22:50:09.847Z,101472.41
2023-07-20T22:52:15.684Z,101466.16
2023-07-20T22:54:21.312Z,101471.41
2023-07-20T22:56:26.650Z,101464.47
2023-07-20T22:58:33.309Z,101467.13
2023-07-20T23:00:38.899Z,101464.72
2023-07-20T23:02:45.422Z,101471.22
2023-07-20T23:04:54.692Z,101466.94
2023-07-20T23:07:02.608Z,101475.81
2023-07-20T23:09:07.924Z,101463.75
2023-07-20T23:11:14.047Z,101468.38
2023-07-20T23:13:18.962Z,101461.69
2023-07-20T23:15:24.113Z,101454.41
2023-07-20T23:17:26.973Z,101456.50
2023-07-20T23:19:33.313Z,101458.28
2023-07-20T23:21:41.800Z,101452.91
2023-07-20T23:23:47.870Z,101457.41
2023-07-20T23:25:56.292Z,101462.66
2023-07-20T23:28:01.466Z,101453.75
2023-07-20T23:30:06.622Z,101459.72
2023-07-20T23:32:13.067Z,101459.03
2023-07-20T23:34:18.218Z,101452.91
2023-07-20T23:36:23.184Z,101456.56
2023-07-20T23:38:30.875Z,101455.78
2023-07-20T23:40:38.038Z,101453.13
2023-07-20T23:42:44.969Z,101452.34
2023-07-20T23:44:50.187Z,101448.78
2023-07-20T23:46:55.370Z,101449.47
2023-07-20T23:49:01.990Z,101447.66
2023-07-20T23:51:04.502Z,101442.69
2023-07-20T23:53:09.578Z,101439.19
2023-07-20T23:55:14.837Z,101440.06
2023-07-20T23:57:20.248Z,101439.38
2023-07-20T23:59:25.247Z,101437.75
